Eshcol, Pennsylvania
Current Conditions -  °F | °C
As of 8:53 PM on Sunday 25 Jan 2015 (Local Time) from KSEG Reporting Station
Overcast Overcast  
Wind Chill: 25°   Ceiling: 7000
Heat Index: 33°   Visibility: 10mi
Dew Point: 17°   Wind: 10mph
Humidity: 52%   Direction: 40°NE
Pressure: 29.92"   Gusts: NA
Location:  40.5551°N, 77.1135°W
Report Text: KSEG 260153Z AUTO 04009KT 10SM FEW042 FEW055 OVC070 01/M08 A2992 RMK AO2 SLP134 T00061083
Loading
Personal Weather Stations






























Interactive Weather Map New forecast layout! Learn more

10-Day Weather Forecast

Advertisements
Track Severe Weather on mobile